world map with NAW marked

NAW - Airport

This information may not be accurate or current and is not valid for navigation or flight planning. No warranty of fitness for any purpose is made or implied.

flag of Thailand

Donate via PayPal

Additional information is available on the NEW Great Circle Mapper

Location
City:  Narathiwat, Narathiwat, Thailand
ICAO / IATA:VTSC / NAW

Details
Type:Airport (Aerodrome, Airfield)
Latitude:6°31'12"N (6.519922)
Longitude:101°44'36"E (101.743400)
Datum:WGS 1984
Elevation:16 ft (5 m)
Runways:1
Longest:6562 × 148 ft (2000 × 45 m)

Time
Timezone:UTC+7 (DST+9)
Local Time:

Weather
METAR:VTSC  041200Z 08005KT 030V120 9999 FEW019 27/24 Q1013 NOSIG
TAF:VTSC  041100Z 0412/0512 18003KT 9999 FEW020 BECMG 0504/0506 09010KT

Related Locations
Nearby:
Farthest:SPCT: 12423 mi / 19994 km
Chota, CAJ, PE

Find:

   beyond  
but within

Other Information
Maps:
Sources:

  


 


Great Circle Mapper   Great Circle Mapper
Great Circle Mapper FAQ   Great Circle Mapper FAQ
  Karl's Home Page
KLSē   KLSē Home
   GC on Facebook
Airlines of the World   Airlines of the World
Donate via PayPal


Copyright © 2004-2020, Karl L. Swartz. All rights reserved.
All trademarks mentioned herein belong to their respective owners.

Please see credits for attribution and copyright information.

Karl Swartz <karl@kls2.com>
  Powered by FreeBSD
Valid HTML 4.01!
Labeled with ICRA
hCard Microformat
Geo Microformat